createdAt,value
2023-10-08T00:04:30.904Z,6.94
2023-10-08T00:09:38.049Z,6.97
2023-10-08T00:14:45.541Z,6.69
2023-10-08T00:19:54.022Z,6.83
2023-10-08T00:24:59.496Z,6.94
2023-10-08T00:30:12.325Z,6.89
2023-10-08T00:35:21.834Z,6.93
2023-10-08T00:40:25.642Z,6.99
2023-10-08T00:45:31.643Z,6.83
2023-10-08T00:50:44.303Z,6.93
2023-10-08T00:55:54.764Z,6.77
2023-10-08T01:01:01.129Z,6.74
2023-10-08T01:06:11.053Z,6.59
2023-10-08T01:11:23.129Z,6.59
2023-10-08T01:16:28.348Z,6.33
2023-10-08T01:21:36.237Z,6.31
2023-10-08T01:26:41.922Z,6.37
2023-10-08T01:31:45.440Z,6.25
2023-10-08T01:36:49.963Z,6.25
2023-10-08T01:41:54.843Z,6.47
2023-10-08T01:46:59.752Z,6.34
2023-10-08T01:52:08.865Z,6.46
2023-10-08T01:57:13.831Z,6.42
2023-10-08T02:02:17.186Z,6.30
2023-10-08T02:07:22.389Z,6.38
2023-10-08T02:12:27.213Z,6.37
2023-10-08T02:17:30.998Z,6.27
2023-10-08T02:22:35.208Z,6.21
2023-10-08T02:27:40.043Z,6.34
2023-10-08T02:32:44.144Z,6.43
2023-10-08T02:37:47.696Z,6.15
2023-10-08T02:42:52.648Z,6.19
2023-10-08T02:47:56.703Z,6.13
2023-10-08T02:53:04.752Z,6.22
2023-10-08T02:58:12.639Z,6.39
2023-10-08T03:03:17.949Z,6.31
2023-10-08T03:08:22.898Z,6.39
2023-10-08T03:13:28.231Z,6.45
2023-10-08T03:18:37.448Z,6.34
2023-10-08T03:23:47.251Z,6.49
2023-10-08T03:28:58.841Z,6.39
2023-10-08T03:34:02.299Z,6.25
2023-10-08T03:39:14.567Z,6.27
2023-10-08T03:44:21.996Z,6.37
2023-10-08T03:49:32.640Z,6.16
2023-10-08T03:54:36.806Z,6.25
2023-10-08T03:59:42.904Z,6.16
2023-10-08T04:04:58.176Z,6.15
2023-10-08T04:10:28.416Z,6.10
2023-10-08T04:15:34.543Z,6.06
2023-10-08T04:20:40.252Z,5.99
2023-10-08T04:25:44.822Z,6.04
2023-10-08T04:30:52.427Z,6.00
2023-10-08T04:35:57.396Z,6.03
2023-10-08T04:41:03.747Z,6.08
2023-10-08T04:46:20.709Z,6.12
2023-10-08T04:51:24.478Z,6.20
2023-10-08T04:56:29.800Z,6.24
2023-10-08T05:01:48.662Z,6.35
2023-10-08T05:07:18.623Z,6.54
2023-10-08T05:12:36.071Z,6.26
2023-10-08T05:17:57.784Z,6.39
2023-10-08T05:23:21.568Z,6.36
2023-10-08T05:28:26.574Z,6.38
2023-10-08T05:33:52.379Z,6.47
2023-10-08T05:39:02.360Z,6.61
2023-10-08T05:44:39.885Z,6.69
2023-10-08T05:49:55.937Z,6.65
2023-10-08T05:55:26.336Z,6.48
2023-10-08T06:00:46.632Z,6.75
2023-10-08T06:06:08.682Z,6.91
2023-10-08T06:11:28.791Z,6.89
2023-10-08T06:16:45.066Z,6.98
2023-10-08T06:21:50.027Z,6.92
2023-10-08T06:26:53.265Z,7.04
2023-10-08T06:31:57.894Z,7.10
2023-10-08T06:37:03.031Z,7.16
2023-10-08T06:42:08.797Z,7.17
2023-10-08T06:47:12.341Z,6.93
2023-10-08T06:52:18.373Z,7.11
2023-10-08T06:57:22.367Z,7.07
2023-10-08T07:02:28.130Z,7.24
2023-10-08T07:07:33.450Z,7.34
2023-10-08T07:12:36.983Z,6.90
2023-10-08T07:17:41.907Z,6.81
2023-10-08T07:22:46.886Z,6.53
2023-10-08T07:27:50.567Z,6.42
2023-10-08T07:32:55.562Z,6.05
2023-10-08T07:38:00.507Z,6.07
2023-10-08T07:43:09.881Z,6.20
2023-10-08T07:48:15.252Z,6.28
2023-10-08T07:53:20.275Z,6.55
2023-10-08T07:58:23.805Z,6.33
2023-10-08T08:03:27.552Z,6.49
2023-10-08T08:08:32.469Z,6.61
2023-10-08T08:13:36.997Z,7.26
2023-10-08T08:18:41.334Z,7.43
2023-10-08T08:23:49.529Z,7.55
2023-10-08T08:28:53.233Z,7.21
2023-10-08T08:34:00.958Z,6.89
2023-10-08T08:39:06.385Z,6.58
2023-10-08T08:44:10.905Z,6.32
2023-10-08T08:49:15.616Z,6.45
2023-10-08T08:54:21.703Z,6.91
2023-10-08T08:59:26.131Z,6.96
2023-10-08T09:04:34.129Z,7.02
2023-10-08T09:09:40.714Z,7.11
2023-10-08T09:14:46.132Z,6.92
2023-10-08T09:19:51.562Z,7.01
2023-10-08T09:24:56.649Z,7.01
2023-10-08T09:30:00.810Z,6.82
2023-10-08T09:35:07.098Z,6.77
2023-10-08T09:40:14.202Z,6.67
2023-10-08T09:45:18.048Z,6.71
2023-10-08T09:50:29.924Z,6.49
2023-10-08T09:55:35.176Z,6.60
2023-10-08T10:00:39.691Z,6.34
2023-10-08T10:05:45.960Z,6.24
2023-10-08T10:11:01.121Z,6.05
2023-10-08T10:16:08.313Z,5.97
2023-10-08T10:21:28.805Z,5.87
2023-10-08T10:26:36.007Z,5.71
2023-10-08T10:31:41.791Z,5.70
2023-10-08T10:36:49.902Z,5.88
2023-10-08T10:41:58.697Z,5.68
2023-10-08T10:47:20.304Z,5.71
2023-10-08T10:52:45.982Z,6.09
2023-10-08T10:58:03.864Z,6.21
2023-10-08T11:03:17.729Z,6.12
2023-10-08T11:08:24.470Z,5.91
2023-10-08T11:13:38.550Z,5.97
2023-10-08T11:18:46.202Z,6.14
2023-10-08T11:23:56.855Z,6.02
2023-10-08T11:29:04.288Z,5.77
2023-10-08T11:34:11.075Z,5.57
2023-10-08T11:39:22.999Z,5.40
2023-10-08T11:44:31.920Z,5.57
2023-10-08T11:49:37.870Z,5.49
2023-10-08T11:54:43.454Z,5.45
2023-10-08T11:59:48.501Z,5.41
2023-10-08T12:04:52.889Z,5.49
2023-10-08T12:09:56.642Z,5.41
2023-10-08T12:15:04.752Z,5.38
2023-10-08T12:20:24.519Z,5.20
2023-10-08T12:25:28.387Z,5.26
2023-10-08T12:30:33.684Z,5.32
2023-10-08T12:35:38.437Z,5.02
2023-10-08T12:40:48.895Z,5.04
2023-10-08T12:45:57.909Z,5.29
2023-10-08T12:51:02.001Z,5.04
2023-10-08T12:56:07.876Z,4.75
2023-10-08T13:01:14.902Z,4.95
2023-10-08T13:06:24.228Z,5.10
2023-10-08T13:11:30.911Z,4.84
2023-10-08T13:16:38.677Z,4.90
2023-10-08T13:21:42.401Z,4.82
2023-10-08T13:26:49.295Z,4.72
2023-10-08T13:31:55.559Z,4.64
2023-10-08T13:36:59.112Z,4.74
2023-10-08T13:42:03.020Z,4.46
2023-10-08T13:47:08.036Z,4.45
2023-10-08T13:52:12.067Z,4.40
2023-10-08T13:57:16.336Z,4.30
2023-10-08T14:02:22.880Z,4.36
2023-10-08T14:07:28.701Z,4.32
2023-10-08T14:12:35.916Z,4.35
2023-10-08T14:17:45.095Z,4.43
2023-10-08T14:22:53.382Z,4.39
2023-10-08T14:28:05.820Z,4.32
2023-10-08T14:33:14.682Z,4.17
2023-10-08T14:38:35.914Z,4.12
2023-10-08T14:43:39.659Z,4.09
2023-10-08T14:48:44.908Z,4.14
2023-10-08T14:53:49.125Z,3.95
2023-10-08T14:58:52.754Z,4.04
2023-10-08T15:03:58.962Z,4.18
2023-10-08T15:09:02.711Z,3.81
2023-10-08T15:14:10.944Z,3.73
2023-10-08T15:19:17.476Z,3.98
2023-10-08T15:24:22.710Z,3.88
2023-10-08T15:29:27.549Z,3.83
2023-10-08T15:34:37.759Z,3.91
2023-10-08T15:39:42.092Z,3.92
2023-10-08T15:44:46.305Z,3.92
2023-10-08T15:49:51.292Z,3.85
2023-10-08T15:54:54.873Z,3.91
2023-10-08T15:59:58.429Z,3.78
2023-10-08T16:05:04.154Z,3.87
2023-10-08T16:10:10.234Z,4.04
2023-10-08T16:15:14.300Z,3.85
2023-10-08T16:20:19.472Z,3.91
2023-10-08T16:25:23.038Z,3.76
2023-10-08T16:30:29.158Z,3.82
2023-10-08T16:35:34.433Z,3.91
2023-10-08T16:40:37.999Z,3.80
2023-10-08T16:45:41.700Z,3.79
2023-10-08T16:50:46.848Z,3.75
2023-10-08T16:55:51.254Z,3.70
2023-10-08T17:00:54.912Z,3.73
2023-10-08T17:06:01.256Z,3.77
2023-10-08T17:11:05.443Z,3.86
2023-10-08T17:16:09.452Z,3.87
2023-10-08T17:21:16.510Z,3.73
2023-10-08T17:26:20.113Z,3.75
2023-10-08T17:31:25.118Z,3.78
2023-10-08T17:36:30.863Z,3.86
2023-10-08T17:41:34.420Z,3.78
2023-10-08T17:46:39.029Z,3.84
2023-10-08T17:51:44.161Z,3.93
2023-10-08T17:56:47.944Z,3.91
2023-10-08T18:01:51.579Z,3.84
2023-10-08T18:06:56.605Z,4.07
2023-10-08T18:12:01.778Z,4.00
2023-10-08T18:17:06.538Z,3.84
2023-10-08T18:22:11.448Z,4.07
2023-10-08T18:27:15.462Z,3.91
2023-10-08T18:32:19.035Z,3.88
2023-10-08T18:37:24.166Z,3.84
2023-10-08T18:42:28.946Z,3.88
2023-10-08T18:47:34.662Z,4.00
2023-10-08T18:52:39.680Z,4.00
2023-10-08T18:57:43.691Z,3.93
2023-10-08T19:02:47.826Z,4.01
2023-10-08T19:07:54.985Z,4.10
2023-10-08T19:12:59.131Z,4.12
2023-10-08T19:18:06.081Z,4.02
2023-10-08T19:23:12.105Z,4.05
2023-10-08T19:28:16.505Z,4.09
2023-10-08T19:33:20.890Z,3.84
2023-10-08T19:38:26.374Z,3.92
2023-10-08T19:43:30.302Z,3.94
2023-10-08T19:48:34.501Z,3.95
2023-10-08T19:53:40.021Z,3.99
2023-10-08T19:58:43.518Z,3.92
2023-10-08T20:03:48.062Z,3.70
2023-10-08T20:08:53.494Z,3.62
2023-10-08T20:13:57.084Z,3.69
2023-10-08T20:19:00.744Z,3.78
2023-10-08T20:24:05.874Z,3.84
2023-10-08T20:29:09.801Z,3.62
2023-10-08T20:34:13.461Z,3.71
2023-10-08T20:39:21.160Z,3.87
2023-10-08T20:44:24.853Z,3.72
2023-10-08T20:49:28.894Z,3.78
2023-10-08T20:54:34.366Z,3.73
2023-10-08T20:59:37.892Z,3.74
2023-10-08T21:04:41.452Z,3.83
2023-10-08T21:09:46.408Z,3.74
2023-10-08T21:14:49.995Z,3.78
2023-10-08T21:19:53.515Z,3.67
2023-10-08T21:24:58.448Z,3.79
2023-10-08T21:30:01.987Z,3.76
2023-10-08T21:35:08.867Z,3.63
2023-10-08T21:40:14.960Z,3.66
2023-10-08T21:45:20.381Z,3.74
2023-10-08T21:50:25.737Z,3.79
2023-10-08T21:55:31.201Z,3.80
2023-10-08T22:00:47.504Z,3.71
2023-10-08T22:05:53.109Z,3.61
2023-10-08T22:10:58.386Z,3.72
2023-10-08T22:16:15.180Z,3.69
2023-10-08T22:21:19.955Z,3.66
2023-10-08T22:26:25.858Z,3.72
2023-10-08T22:31:29.599Z,3.56
2023-10-08T22:36:42.976Z,3.58
2023-10-08T22:41:55.972Z,3.62
2023-10-08T22:47:11.426Z,3.58
2023-10-08T22:52:16.907Z,3.62
2023-10-08T22:57:24.746Z,3.63
2023-10-08T23:02:29.085Z,3.62
2023-10-08T23:07:32.570Z,3.66
2023-10-08T23:12:37.418Z,3.70
2023-10-08T23:17:41.519Z,3.74
2023-10-08T23:22:45.901Z,3.65
2023-10-08T23:27:50.782Z,3.69
2023-10-08T23:32:53.998Z,3.65
2023-10-08T23:38:07.439Z,3.63
2023-10-08T23:43:17.269Z,3.60
2023-10-08T23:48:21.107Z,3.64
2023-10-08T23:53:30.767Z,3.60
2023-10-08T23:58:38.780Z,3.70
